createdAt,value
2019-04-27T00:01:27.406Z,14
2019-04-27T00:06:27.375Z,13
2019-04-27T00:11:33.414Z,13
2019-04-27T00:16:33.942Z,10
2019-04-27T00:21:32.995Z,11
2019-04-27T00:26:33.564Z,12
2019-04-27T00:31:33.857Z,12
2019-04-27T00:36:35.373Z,13
2019-04-27T00:41:34.093Z,13
2019-04-27T00:46:33.177Z,11
2019-04-27T00:51:33.450Z,11
2019-04-27T00:56:34.062Z,10
2019-04-27T01:01:33.460Z,11
2019-04-27T01:06:33.753Z,10
2019-04-27T01:11:33.527Z,10
2019-04-27T01:16:32.882Z,12
2019-04-27T01:21:32.870Z,13
2019-04-27T01:26:32.899Z,10
2019-04-27T01:31:32.865Z,11
2019-04-27T01:36:32.825Z,10
2019-04-27T01:41:32.870Z,11
2019-04-27T01:46:32.819Z,9
2019-04-27T01:51:32.870Z,10
2019-04-27T01:56:32.807Z,11
2019-04-27T02:01:32.953Z,10
2019-04-27T02:06:32.833Z,11
2019-04-27T02:11:32.877Z,9
2019-04-27T02:16:37.026Z,9
2019-04-27T02:21:32.831Z,9
2019-04-27T02:26:32.820Z,10
2019-04-27T02:31:32.842Z,10
2019-04-27T02:36:32.802Z,12
2019-04-27T02:41:32.771Z,9
2019-04-27T02:46:32.820Z,10
2019-04-27T02:51:32.829Z,10
2019-04-27T02:56:32.793Z,11
2019-04-27T03:01:33.817Z,11
2019-04-27T03:06:32.772Z,11
2019-04-27T03:11:34.092Z,10
2019-04-27T03:16:32.755Z,10
2019-04-27T03:21:33.519Z,11
2019-04-27T03:26:33.539Z,12
2019-04-27T03:31:33.498Z,11
2019-04-27T03:36:34.869Z,11
2019-04-27T03:41:33.534Z,10
2019-04-27T03:46:33.473Z,11
2019-04-27T03:51:36.425Z,12
2019-04-27T03:56:34.974Z,12
2019-04-27T04:01:34.994Z,13
2019-04-27T04:06:34.955Z,14
2019-04-27T04:11:36.227Z,12
2019-04-27T04:16:34.935Z,12
2019-04-27T04:21:34.907Z,12
2019-04-27T04:26:34.966Z,13
2019-04-27T04:31:36.327Z,12
2019-04-27T04:36:34.915Z,13
2019-04-27T04:41:34.923Z,15
2019-04-27T04:46:34.906Z,13
2019-04-27T04:51:34.949Z,13
2019-04-27T04:56:34.901Z,10
2019-04-27T05:01:34.905Z,16
2019-04-27T05:06:34.920Z,13
2019-04-27T05:11:39.757Z,15
2019-04-27T05:16:39.282Z,13
2019-04-27T05:21:39.069Z,16
2019-04-27T05:26:39.992Z,15
2019-04-27T05:31:39.093Z,13
2019-04-27T05:36:52.309Z,15
2019-04-27T05:41:41.946Z,15
2019-04-27T05:46:39.945Z,13
2019-04-27T05:51:42.136Z,16
2019-04-27T05:56:39.709Z,13
2019-04-27T06:01:39.669Z,13
2019-04-27T06:06:44.458Z,15
2019-04-27T06:11:40.201Z,13
2019-04-27T06:16:39.679Z,13
2019-04-27T06:21:40.384Z,17
2019-04-27T06:26:40.185Z,13
2019-04-27T06:31:39.898Z,13
2019-04-27T06:36:39.696Z,15
2019-04-27T06:41:40.319Z,12
2019-04-27T06:46:40.747Z,13
2019-04-27T06:51:40.285Z,12
2019-04-27T06:56:39.617Z,13
2019-04-27T07:01:39.662Z,12
2019-04-27T07:06:56.313Z,13
2019-04-27T07:11:39.722Z,11
2019-04-27T07:16:39.637Z,12
2019-04-27T07:21:40.311Z,12
2019-04-27T07:26:39.621Z,11
2019-04-27T07:31:40.460Z,12
2019-04-27T07:36:39.639Z,11
2019-04-27T07:41:39.595Z,11
2019-04-27T07:46:39.572Z,12
2019-04-27T07:51:39.603Z,14
2019-04-27T07:56:39.612Z,11
2019-04-27T08:01:39.566Z,12
2019-04-27T08:06:39.585Z,10
2019-04-27T08:11:39.563Z,11
2019-04-27T08:16:39.565Z,10
2019-04-27T08:21:46.677Z,12
2019-04-27T08:26:39.631Z,12
2019-04-27T08:31:39.570Z,10
2019-04-27T08:36:39.550Z,12
2019-04-27T08:41:39.595Z,10
2019-04-27T08:46:39.522Z,12
2019-04-27T08:51:41.741Z,12
2019-04-27T08:56:39.733Z,12
2019-04-27T09:01:39.872Z,14
2019-04-27T09:06:40.812Z,12
2019-04-27T09:11:39.559Z,11
2019-04-27T09:16:39.489Z,12
2019-04-27T09:21:39.634Z,13
2019-04-27T09:26:39.522Z,12
2019-04-27T09:31:39.595Z,12
2019-04-27T09:36:39.485Z,16
2019-04-27T09:41:39.526Z,15
2019-04-27T09:46:39.509Z,13
2019-04-27T11:07:07.323Z,11
2019-04-27T11:12:07.103Z,14
2019-04-27T11:17:06.433Z,14
2019-04-27T11:22:07.663Z,11
2019-04-27T11:27:06.377Z,12
2019-04-27T11:32:06.350Z,10
2019-04-27T11:37:06.329Z,13
2019-04-27T11:42:06.341Z,12
2019-04-27T11:47:06.308Z,11
2019-04-27T11:52:07.749Z,11
2019-04-27T11:57:06.321Z,11
2019-04-27T12:02:06.324Z,15
2019-04-27T12:07:06.658Z,13
2019-04-27T12:12:21.983Z,14
2019-04-27T12:17:06.468Z,15
2019-04-27T12:22:06.355Z,11
2019-04-27T12:27:06.304Z,11
2019-04-27T12:32:06.315Z,8
2019-04-27T12:37:07.395Z,8
2019-04-27T12:42:06.339Z,10
2019-04-27T12:47:06.414Z,10
2019-04-27T12:52:06.272Z,8
2019-04-27T12:57:06.299Z,7
2019-04-27T13:02:06.403Z,8
2019-04-27T13:07:06.248Z,11
2019-04-27T13:12:06.338Z,8
2019-04-27T13:17:06.412Z,9
2019-04-27T13:22:06.327Z,8
2019-04-27T13:27:06.589Z,8
2019-04-27T13:32:06.228Z,9
2019-04-27T13:37:06.245Z,10
2019-04-27T13:42:06.743Z,8
2019-04-27T13:47:08.176Z,9
2019-04-27T13:52:06.277Z,9
2019-04-27T13:57:07.723Z,10
2019-04-27T14:02:06.235Z,11
2019-04-27T14:07:06.222Z,10
2019-04-27T14:12:06.224Z,11
2019-04-27T14:17:09.968Z,10
2019-04-27T14:22:06.256Z,10
2019-04-27T14:27:06.207Z,11
2019-04-27T14:32:06.229Z,9
2019-04-27T14:37:06.178Z,11
2019-04-27T14:42:08.544Z,10
2019-04-27T14:47:08.311Z,11
2019-04-27T14:52:06.217Z,12
2019-04-27T14:57:06.239Z,26
2019-04-27T15:02:06.175Z,13
2019-04-27T15:07:06.187Z,12
2019-04-27T15:12:06.144Z,12
2019-04-27T15:17:06.965Z,15
2019-04-27T15:22:06.135Z,11
2019-04-27T15:27:06.181Z,11
2019-04-27T15:36:10.469Z,12
2019-04-27T15:41:09.014Z,13
2019-04-27T15:46:08.422Z,14
2019-04-27T15:51:21.084Z,12
2019-04-27T15:56:09.027Z,14
2019-04-27T16:06:51.392Z,16
2019-04-27T16:12:12.140Z,14
2019-04-27T16:16:51.313Z,18
2019-04-27T16:21:54.603Z,17
2019-04-27T16:26:56.296Z,15
2019-04-27T16:27:49.159Z,16
2019-04-27T16:32:59.506Z,16
2019-04-27T16:38:00.266Z,20
2019-04-27T16:43:00.734Z,18
2019-04-27T16:48:02.241Z,22
2019-04-27T16:55:00.946Z,18
2019-04-27T16:58:00.182Z,18
2019-04-27T17:03:06.728Z,20
2019-04-27T17:07:59.809Z,18
2019-04-27T17:12:59.753Z,18
2019-04-27T17:17:59.706Z,20
2019-04-27T17:22:59.686Z,19
2019-04-27T17:28:05.313Z,20
2019-04-27T17:52:59.198Z,18
2019-04-27T17:58:06.417Z,18
2019-04-27T18:02:58.105Z,18
2019-04-27T18:07:58.118Z,18
2019-04-27T18:12:58.425Z,20
2019-04-27T18:17:58.562Z,17
2019-04-27T18:22:58.123Z,19
2019-04-27T18:27:58.391Z,21
2019-04-27T18:33:02.345Z,22
2019-04-27T18:38:02.071Z,21
2019-04-27T18:42:57.484Z,22
2019-04-27T18:47:59.486Z,22
2019-04-27T18:52:58.223Z,22
2019-04-27T18:58:02.242Z,21
2019-04-27T19:02:58.626Z,22
2019-04-27T19:07:57.426Z,24
2019-04-27T19:12:58.640Z,21
2019-04-27T19:17:58.332Z,22
2019-04-27T19:22:57.432Z,21
2019-04-27T19:49:51.571Z,20
2019-04-27T19:54:51.529Z,19
2019-04-27T19:59:51.643Z,19
2019-04-27T20:04:51.545Z,21
2019-04-27T20:09:51.541Z,20
2019-04-27T20:14:51.527Z,20
2019-04-27T20:19:51.775Z,21
2019-04-27T20:24:51.571Z,19
2019-04-27T20:29:51.515Z,18
2019-04-27T20:34:51.589Z,19
2019-04-27T20:39:51.715Z,22
2019-04-27T21:00:22.203Z,19
2019-04-27T21:05:22.279Z,18
2019-04-27T21:10:22.188Z,16
2019-04-27T21:15:22.180Z,17
2019-04-27T21:20:22.207Z,15
2019-04-27T21:25:22.188Z,13
2019-04-27T21:30:22.202Z,15
2019-04-27T21:35:22.172Z,12
2019-04-27T21:40:22.158Z,13
